<?xml version="1.0" encoding="UTF-8"?>
<gpx xmlns="http://www.topografix.com/GPX/1/1" xmlns:gpsies="http://www.gpsies.com/GPX/1/0" creator="GPSies http://www.gpsies.com - Murgtal 1" version="1.1" xmlns:xsi="http://www.w3.org/2001/XMLSchema-instance" xsi:schemaLocation="http://www.topografix.com/GPX/1/1 http://www.topografix.com/GPX/1/1/gpx.xsd http://www.gpsies.com/GPX/1/0 http://www.gpsies.com/gpsies.xsd">
  <metadata>
    <name>Murgtal 1</name>
    <author>
      <name>NaturFreundeLV</name>
      <link href="http://www.gpsies.com/mapUser.do?username=NaturFreundeLV">
        <text>NaturFreundeLV on GPSies.com</text>
        <type>GPSiesUserOnWeb</type>
      </link>
    </author>
    <link href="http://www.gpsies.com/map.do?fileId=knynpawadbtkwlpd">
      <text>Murgtal 1 on GPSies.com</text>
      <type>trackOnWeb</type>
    </link>
    <time>2016-09-08T09:44:40Z</time>
    <extensions>
      <gpsies:property>one-way trip</gpsies:property>
      <gpsies:trackLengthMeter>17116.258655585178</gpsies:trackLengthMeter>
      <gpsies:totalAscentMeter>555.0</gpsies:totalAscentMeter>
      <gpsies:totalDescentMeter>530.0</gpsies:totalDescentMeter>
      <gpsies:minHeightMeter>141.0</gpsies:minHeightMeter>
      <gpsies:maxHeightMeter>338.0</gpsies:maxHeightMeter>
    </extensions>
  </metadata>
  <trk>
    <name>Murgtal 1 on GPSies.com</name>
    <link href="http://www.gpsies.com/map.do?fileId=knynpawadbtkwlpd">
      <type>trackOnWeb</type>
    </link>
    <link href="http://www.gpsies.com/charts/kn/map/knynpawadbtkwlpd_map.png">
      <type>elevationChartUrlMap</type>
    </link>
    <link href="http://www.gpsies.com/charts/kn/mapThumb/knynpawadbtkwlpd_mapThumb.png">
      <type>elevationChartUrlMapThumb</type>
    </link>
    <link href="http://www.gpsies.com/charts/kn/tab/knynpawadbtkwlpd_tab.png">
      <type>elevationChartUrlTab</type>
    </link>
    <trkseg>
      <trkpt lat="48.80546430" lon="8.320276730">
        <ele>142.00000</ele>
        <time>2010-01-01T00:00:00Z</time>
      </trkpt>
      <trkpt lat="48.80546000" lon="8.320280000">
        <ele>142.00000</ele>
        <time>2010-01-01T00:00:00Z</time>
      </trkpt>
      <trkpt lat="48.80518000" lon="8.320480000">
        <ele>142.00000</ele>
        <time>2010-01-01T00:00:12Z</time>
      </trkpt>
      <trkpt lat="48.80519000" lon="8.320510000">
        <ele>142.00000</ele>
        <time>2010-01-01T00:00:13Z</time>
      </trkpt>
      <trkpt lat="48.80505000" lon="8.320600000">
        <ele>142.00000</ele>
        <time>2010-01-01T00:00:19Z</time>
      </trkpt>
      <trkpt lat="48.80509000" lon="8.320740000">
        <ele>142.00000</ele>
        <time>2010-01-01T00:00:23Z</time>
      </trkpt>
      <trkpt lat="48.80507000" lon="8.320760000">
        <ele>142.00000</ele>
        <time>2010-01-01T00:00:24Z</time>
      </trkpt>
      <trkpt lat="48.80465000" lon="8.320990000">
        <ele>143.00000</ele>
        <time>2010-01-01T00:00:42Z</time>
      </trkpt>
      <trkpt lat="48.80362000" lon="8.321420000">
        <ele>141.00000</ele>
        <time>2010-01-01T00:01:25Z</time>
      </trkpt>
      <trkpt lat="48.80361000" lon="8.321380000">
        <ele>142.00000</ele>
        <time>2010-01-01T00:01:26Z</time>
      </trkpt>
      <trkpt lat="48.80361000" lon="8.321370000">
        <ele>142.00000</ele>
        <time>2010-01-01T00:01:26Z</time>
      </trkpt>
      <trkpt lat="48.80383000" lon="8.322290000">
        <ele>143.00000</ele>
        <time>2010-01-01T00:01:52Z</time>
      </trkpt>
      <trkpt lat="48.80395000" lon="8.323320000">
        <ele>146.00000</ele>
        <time>2010-01-01T00:02:19Z</time>
      </trkpt>
      <trkpt lat="48.80393000" lon="8.323550000">
        <ele>148.00000</ele>
        <time>2010-01-01T00:02:26Z</time>
      </trkpt>
      <trkpt lat="48.80370000" lon="8.324500000">
        <ele>151.00000</ele>
        <time>2010-01-01T00:02:52Z</time>
      </trkpt>
      <trkpt lat="48.80370000" lon="8.324490000">
        <ele>151.00000</ele>
        <time>2010-01-01T00:02:53Z</time>
      </trkpt>
      <trkpt lat="48.80370000" lon="8.324480000">
        <ele>151.00000</ele>
        <time>2010-01-01T00:02:53Z</time>
      </trkpt>
      <trkpt lat="48.80458000" lon="8.325250000">
        <ele>159.00000</ele>
        <time>2010-01-01T00:03:33Z</time>
      </trkpt>
      <trkpt lat="48.80458000" lon="8.325240000">
        <ele>159.00000</ele>
        <time>2010-01-01T00:03:34Z</time>
      </trkpt>
      <trkpt lat="48.80519000" lon="8.325330000">
        <ele>167.00000</ele>
        <time>2010-01-01T00:03:58Z</time>
      </trkpt>
      <trkpt lat="48.80526000" lon="8.325370000">
        <ele>168.00000</ele>
        <time>2010-01-01T00:04:01Z</time>
      </trkpt>
      <trkpt lat="48.80531000" lon="8.325440000">
        <ele>169.00000</ele>
        <time>2010-01-01T00:04:04Z</time>
      </trkpt>
      <trkpt lat="48.80537000" lon="8.325600000">
        <ele>171.00000</ele>
        <time>2010-01-01T00:04:09Z</time>
      </trkpt>
      <trkpt lat="48.80546000" lon="8.325730000">
        <ele>173.00000</ele>
        <time>2010-01-01T00:04:14Z</time>
      </trkpt>
      <trkpt lat="48.80579000" lon="8.326120000">
        <ele>177.00000</ele>
        <time>2010-01-01T00:04:31Z</time>
      </trkpt>
      <trkpt lat="48.80630000" lon="8.326770000">
        <ele>181.00000</ele>
        <time>2010-01-01T00:04:57Z</time>
      </trkpt>
      <trkpt lat="48.80645000" lon="8.326930000">
        <ele>182.00000</ele>
        <time>2010-01-01T00:05:05Z</time>
      </trkpt>
      <trkpt lat="48.80656000" lon="8.327160000">
        <ele>183.00000</ele>
        <time>2010-01-01T00:05:12Z</time>
      </trkpt>
      <trkpt lat="48.80669000" lon="8.327580000">
        <ele>185.00000</ele>
        <time>2010-01-01T00:05:24Z</time>
      </trkpt>
      <trkpt lat="48.80681000" lon="8.328040000">
        <ele>186.00000</ele>
        <time>2010-01-01T00:05:37Z</time>
      </trkpt>
      <trkpt lat="48.80687000" lon="8.328190000">
        <ele>186.00000</ele>
        <time>2010-01-01T00:05:42Z</time>
      </trkpt>
      <trkpt lat="48.80697000" lon="8.328340000">
        <ele>186.00000</ele>
        <time>2010-01-01T00:05:48Z</time>
      </trkpt>
      <trkpt lat="48.80711000" lon="8.328510000">
        <ele>187.00000</ele>
        <time>2010-01-01T00:05:55Z</time>
      </trkpt>
      <trkpt lat="48.80735000" lon="8.328730000">
        <ele>186.00000</ele>
        <time>2010-01-01T00:06:06Z</time>
      </trkpt>
      <trkpt lat="48.80732000" lon="8.328800000">
        <ele>187.00000</ele>
        <time>2010-01-01T00:06:08Z</time>
      </trkpt>
      <trkpt lat="48.80732000" lon="8.328860000">
        <ele>187.00000</ele>
        <time>2010-01-01T00:06:10Z</time>
      </trkpt>
      <trkpt lat="48.80732000" lon="8.328850000">
        <ele>187.00000</ele>
        <time>2010-01-01T00:06:10Z</time>
      </trkpt>
      <trkpt lat="48.80733000" lon="8.328880000">
        <ele>187.00000</ele>
        <time>2010-01-01T00:06:11Z</time>
      </trkpt>
      <trkpt lat="48.80737000" lon="8.328940000">
        <ele>187.00000</ele>
        <time>2010-01-01T00:06:13Z</time>
      </trkpt>
      <trkpt lat="48.80742000" lon="8.328940000">
        <ele>187.00000</ele>
        <time>2010-01-01T00:06:15Z</time>
      </trkpt>
      <trkpt lat="48.80747000" lon="8.328890000">
        <ele>187.00000</ele>
        <time>2010-01-01T00:06:18Z</time>
      </trkpt>
      <trkpt lat="48.80770000" lon="8.329020000">
        <ele>189.00000</ele>
        <time>2010-01-01T00:06:27Z</time>
      </trkpt>
      <trkpt lat="48.80796000" lon="8.329090000">
        <ele>190.00000</ele>
        <time>2010-01-01T00:06:38Z</time>
      </trkpt>
      <trkpt lat="48.80795000" lon="8.329090000">
        <ele>190.00000</ele>
        <time>2010-01-01T00:06:38Z</time>
      </trkpt>
      <trkpt lat="48.80796000" lon="8.329090000">
        <ele>190.00000</ele>
        <time>2010-01-01T00:06:39Z</time>
      </trkpt>
      <trkpt lat="48.80796000" lon="8.329380000">
        <ele>190.00000</ele>
        <time>2010-01-01T00:06:46Z</time>
      </trkpt>
      <trkpt lat="48.80799000" lon="8.329600000">
        <ele>190.00000</ele>
        <time>2010-01-01T00:06:52Z</time>
      </trkpt>
      <trkpt lat="48.80853000" lon="8.331240000">
        <ele>196.00000</ele>
        <time>2010-01-01T00:07:41Z</time>
      </trkpt>
      <trkpt lat="48.80853000" lon="8.331230000">
        <ele>196.00000</ele>
        <time>2010-01-01T00:07:41Z</time>
      </trkpt>
      <trkpt lat="48.80840000" lon="8.330850000">
        <ele>194.00000</ele>
        <time>2010-01-01T00:07:52Z</time>
      </trkpt>
      <trkpt lat="48.80806000" lon="8.331120000">
        <ele>194.00000</ele>
        <time>2010-01-01T00:08:08Z</time>
      </trkpt>
      <trkpt lat="48.80782000" lon="8.331330000">
        <ele>195.00000</ele>
        <time>2010-01-01T00:08:19Z</time>
      </trkpt>
      <trkpt lat="48.80811000" lon="8.332000000">
        <ele>198.00000</ele>
        <time>2010-01-01T00:08:40Z</time>
      </trkpt>
      <trkpt lat="48.80864000" lon="8.332790000">
        <ele>201.00000</ele>
        <time>2010-01-01T00:09:09Z</time>
      </trkpt>
      <trkpt lat="48.80971000" lon="8.334690000">
        <ele>208.00000</ele>
        <time>2010-01-01T00:10:15Z</time>
      </trkpt>
      <trkpt lat="48.81005000" lon="8.334070000">
        <ele>212.00000</ele>
        <time>2010-01-01T00:10:37Z</time>
      </trkpt>
      <trkpt lat="48.81070000" lon="8.332870000">
        <ele>204.00000</ele>
        <time>2010-01-01T00:11:18Z</time>
      </trkpt>
      <trkpt lat="48.81140000" lon="8.331450000">
        <ele>206.00000</ele>
        <time>2010-01-01T00:12:04Z</time>
      </trkpt>
      <trkpt lat="48.81143000" lon="8.331520000">
        <ele>206.00000</ele>
        <time>2010-01-01T00:12:07Z</time>
      </trkpt>
      <trkpt lat="48.81142000" lon="8.331520000">
        <ele>206.00000</ele>
        <time>2010-01-01T00:12:07Z</time>
      </trkpt>
      <trkpt lat="48.81339000" lon="8.336130000">
        <ele>224.00000</ele>
        <time>2010-01-01T00:14:32Z</time>
      </trkpt>
      <trkpt lat="48.81567000" lon="8.340870000">
        <ele>244.00000</ele>
        <time>2010-01-01T00:17:07Z</time>
      </trkpt>
      <trkpt lat="48.81628000" lon="8.341690000">
        <ele>256.00000</ele>
        <time>2010-01-01T00:17:39Z</time>
      </trkpt>
      <trkpt lat="48.81630000" lon="8.341750000">
        <ele>256.00000</ele>
        <time>2010-01-01T00:17:41Z</time>
      </trkpt>
      <trkpt lat="48.81630000" lon="8.341740000">
        <ele>256.00000</ele>
        <time>2010-01-01T00:17:41Z</time>
      </trkpt>
      <trkpt lat="48.81634000" lon="8.341860000">
        <ele>256.00000</ele>
        <time>2010-01-01T00:17:45Z</time>
      </trkpt>
      <trkpt lat="48.81620000" lon="8.342170000">
        <ele>252.00000</ele>
        <time>2010-01-01T00:17:55Z</time>
      </trkpt>
      <trkpt lat="48.81612000" lon="8.342580000">
        <ele>246.00000</ele>
        <time>2010-01-01T00:18:06Z</time>
      </trkpt>
      <trkpt lat="48.81608000" lon="8.342880000">
        <ele>241.00000</ele>
        <time>2010-01-01T00:18:14Z</time>
      </trkpt>
      <trkpt lat="48.81611000" lon="8.343140000">
        <ele>240.00000</ele>
        <time>2010-01-01T00:18:21Z</time>
      </trkpt>
      <trkpt lat="48.81617000" lon="8.343390000">
        <ele>240.00000</ele>
        <time>2010-01-01T00:18:28Z</time>
      </trkpt>
      <trkpt lat="48.81629000" lon="8.343610000">
        <ele>240.00000</ele>
        <time>2010-01-01T00:18:36Z</time>
      </trkpt>
      <trkpt lat="48.81686000" lon="8.344410000">
        <ele>237.00000</ele>
        <time>2010-01-01T00:19:07Z</time>
      </trkpt>
      <trkpt lat="48.81701000" lon="8.344770000">
        <ele>234.00000</ele>
        <time>2010-01-01T00:19:18Z</time>
      </trkpt>
      <trkpt lat="48.81719000" lon="8.345420000">
        <ele>227.00000</ele>
        <time>2010-01-01T00:19:36Z</time>
      </trkpt>
      <trkpt lat="48.81810000" lon="8.347050000">
        <ele>213.00000</ele>
        <time>2010-01-01T00:20:33Z</time>
      </trkpt>
      <trkpt lat="48.81891000" lon="8.348250000">
        <ele>206.00000</ele>
        <time>2010-01-01T00:21:18Z</time>
      </trkpt>
      <trkpt lat="48.81905000" lon="8.348530000">
        <ele>203.00000</ele>
        <time>2010-01-01T00:21:27Z</time>
      </trkpt>
      <trkpt lat="48.81912000" lon="8.348810000">
        <ele>202.00000</ele>
        <time>2010-01-01T00:21:35Z</time>
      </trkpt>
      <trkpt lat="48.81910000" lon="8.348930000">
        <ele>201.00000</ele>
        <time>2010-01-01T00:21:38Z</time>
      </trkpt>
      <trkpt lat="48.81889000" lon="8.349440000">
        <ele>199.00000</ele>
        <time>2010-01-01T00:21:54Z</time>
      </trkpt>
      <trkpt lat="48.81879000" lon="8.349770000">
        <ele>200.00000</ele>
        <time>2010-01-01T00:22:04Z</time>
      </trkpt>
      <trkpt lat="48.81876000" lon="8.349960000">
        <ele>201.00000</ele>
        <time>2010-01-01T00:22:09Z</time>
      </trkpt>
      <trkpt lat="48.81876000" lon="8.350110000">
        <ele>202.00000</ele>
        <time>2010-01-01T00:22:13Z</time>
      </trkpt>
      <trkpt lat="48.81865000" lon="8.350350000">
        <ele>201.00000</ele>
        <time>2010-01-01T00:22:21Z</time>
      </trkpt>
      <trkpt lat="48.81840000" lon="8.351200000">
        <ele>201.00000</ele>
        <time>2010-01-01T00:22:45Z</time>
      </trkpt>
      <trkpt lat="48.81836000" lon="8.351290000">
        <ele>201.00000</ele>
        <time>2010-01-01T00:22:48Z</time>
      </trkpt>
      <trkpt lat="48.81832000" lon="8.351320000">
        <ele>201.00000</ele>
        <time>2010-01-01T00:22:50Z</time>
      </trkpt>
      <trkpt lat="48.81826000" lon="8.351320000">
        <ele>200.00000</ele>
        <time>2010-01-01T00:22:52Z</time>
      </trkpt>
      <trkpt lat="48.81817000" lon="8.351280000">
        <ele>199.00000</ele>
        <time>2010-01-01T00:22:56Z</time>
      </trkpt>
      <trkpt lat="48.81807000" lon="8.351170000">
        <ele>197.00000</ele>
        <time>2010-01-01T00:23:01Z</time>
      </trkpt>
      <trkpt lat="48.81773000" lon="8.351800000">
        <ele>202.00000</ele>
        <time>2010-01-01T00:23:22Z</time>
      </trkpt>
      <trkpt lat="48.81768000" lon="8.351830000">
        <ele>203.00000</ele>
        <time>2010-01-01T00:23:25Z</time>
      </trkpt>
      <trkpt lat="48.81748000" lon="8.351700000">
        <ele>203.00000</ele>
        <time>2010-01-01T00:23:33Z</time>
      </trkpt>
      <trkpt lat="48.81728000" lon="8.351370000">
        <ele>203.00000</ele>
        <time>2010-01-01T00:23:45Z</time>
      </trkpt>
      <trkpt lat="48.81700000" lon="8.351750000">
        <ele>209.00000</ele>
        <time>2010-01-01T00:24:00Z</time>
      </trkpt>
      <trkpt lat="48.81665000" lon="8.352050000">
        <ele>216.00000</ele>
        <time>2010-01-01T00:24:16Z</time>
      </trkpt>
      <trkpt lat="48.81604000" lon="8.352490000">
        <ele>224.00000</ele>
        <time>2010-01-01T00:24:43Z</time>
      </trkpt>
      <trkpt lat="48.81603000" lon="8.352520000">
        <ele>224.00000</ele>
        <time>2010-01-01T00:24:44Z</time>
      </trkpt>
      <trkpt lat="48.81593000" lon="8.352880000">
        <ele>226.00000</ele>
        <time>2010-01-01T00:24:54Z</time>
      </trkpt>
      <trkpt lat="48.81581000" lon="8.352850000">
        <ele>227.00000</ele>
        <time>2010-01-01T00:24:59Z</time>
      </trkpt>
      <trkpt lat="48.81557000" lon="8.352890000">
        <ele>228.00000</ele>
        <time>2010-01-01T00:25:09Z</time>
      </trkpt>
      <trkpt lat="48.81477000" lon="8.353360000">
        <ele>239.00000</ele>
        <time>2010-01-01T00:25:43Z</time>
      </trkpt>
      <trkpt lat="48.81456000" lon="8.353410000">
        <ele>240.00000</ele>
        <time>2010-01-01T00:25:52Z</time>
      </trkpt>
      <trkpt lat="48.81413000" lon="8.353000000">
        <ele>247.00000</ele>
        <time>2010-01-01T00:26:12Z</time>
      </trkpt>
      <trkpt lat="48.81383000" lon="8.353070000">
        <ele>256.00000</ele>
        <time>2010-01-01T00:26:24Z</time>
      </trkpt>
      <trkpt lat="48.81344000" lon="8.353320000">
        <ele>265.00000</ele>
        <time>2010-01-01T00:26:41Z</time>
      </trkpt>
      <trkpt lat="48.81345000" lon="8.353400000">
        <ele>265.00000</ele>
        <time>2010-01-01T00:26:43Z</time>
      </trkpt>
      <trkpt lat="48.81341000" lon="8.353380000">
        <ele>266.00000</ele>
        <time>2010-01-01T00:26:45Z</time>
      </trkpt>
      <trkpt lat="48.81340000" lon="8.353380000">
        <ele>267.00000</ele>
        <time>2010-01-01T00:26:46Z</time>
      </trkpt>
      <trkpt lat="48.81322000" lon="8.353300000">
        <ele>269.00000</ele>
        <time>2010-01-01T00:26:53Z</time>
      </trkpt>
      <trkpt lat="48.81285000" lon="8.353530000">
        <ele>269.00000</ele>
        <time>2010-01-01T00:27:09Z</time>
      </trkpt>
      <trkpt lat="48.81270000" lon="8.353650000">
        <ele>267.00000</ele>
        <time>2010-01-01T00:27:16Z</time>
      </trkpt>
      <trkpt lat="48.81206000" lon="8.354360000">
        <ele>262.00000</ele>
        <time>2010-01-01T00:27:48Z</time>
      </trkpt>
      <trkpt lat="48.81198000" lon="8.354430000">
        <ele>262.00000</ele>
        <time>2010-01-01T00:27:51Z</time>
      </trkpt>
      <trkpt lat="48.81180000" lon="8.354470000">
        <ele>261.00000</ele>
        <time>2010-01-01T00:27:59Z</time>
      </trkpt>
      <trkpt lat="48.81172000" lon="8.354450000">
        <ele>260.00000</ele>
        <time>2010-01-01T00:28:02Z</time>
      </trkpt>
      <trkpt lat="48.81164000" lon="8.354430000">
        <ele>259.00000</ele>
        <time>2010-01-01T00:28:05Z</time>
      </trkpt>
      <trkpt lat="48.81141000" lon="8.354270000">
        <ele>255.00000</ele>
        <time>2010-01-01T00:28:15Z</time>
      </trkpt>
      <trkpt lat="48.81136000" lon="8.354260000">
        <ele>254.00000</ele>
        <time>2010-01-01T00:28:17Z</time>
      </trkpt>
      <trkpt lat="48.81090000" lon="8.354560000">
        <ele>251.00000</ele>
        <time>2010-01-01T00:28:37Z</time>
      </trkpt>
      <trkpt lat="48.81079000" lon="8.354480000">
        <ele>249.00000</ele>
        <time>2010-01-01T00:28:42Z</time>
      </trkpt>
      <trkpt lat="48.81079000" lon="8.354470000">
        <ele>249.00000</ele>
        <time>2010-01-01T00:28:42Z</time>
      </trkpt>
      <trkpt lat="48.81074000" lon="8.354430000">
        <ele>249.00000</ele>
        <time>2010-01-01T00:28:45Z</time>
      </trkpt>
      <trkpt lat="48.81068000" lon="8.354690000">
        <ele>249.00000</ele>
        <time>2010-01-01T00:28:52Z</time>
      </trkpt>
      <trkpt lat="48.81054000" lon="8.354900000">
        <ele>248.00000</ele>
        <time>2010-01-01T00:29:00Z</time>
      </trkpt>
      <trkpt lat="48.81046000" lon="8.355170000">
        <ele>247.00000</ele>
        <time>2010-01-01T00:29:08Z</time>
      </trkpt>
      <trkpt lat="48.81039000" lon="8.355290000">
        <ele>247.00000</ele>
        <time>2010-01-01T00:29:12Z</time>
      </trkpt>
      <trkpt lat="48.81032000" lon="8.355330000">
        <ele>247.00000</ele>
        <time>2010-01-01T00:29:15Z</time>
      </trkpt>
      <trkpt lat="48.80995000" lon="8.355340000">
        <ele>249.00000</ele>
        <time>2010-01-01T00:29:30Z</time>
      </trkpt>
      <trkpt lat="48.80988000" lon="8.355370000">
        <ele>250.00000</ele>
        <time>2010-01-01T00:29:32Z</time>
      </trkpt>
      <trkpt lat="48.80979000" lon="8.355440000">
        <ele>251.00000</ele>
        <time>2010-01-01T00:29:37Z</time>
      </trkpt>
      <trkpt lat="48.80940000" lon="8.355980000">
        <ele>249.00000</ele>
        <time>2010-01-01T00:29:58Z</time>
      </trkpt>
      <trkpt lat="48.80924000" lon="8.356120000">
        <ele>248.00000</ele>
        <time>2010-01-01T00:30:05Z</time>
      </trkpt>
      <trkpt lat="48.80903000" lon="8.356190000">
        <ele>248.00000</ele>
        <time>2010-01-01T00:30:14Z</time>
      </trkpt>
      <trkpt lat="48.80877000" lon="8.356370000">
        <ele>250.00000</ele>
        <time>2010-01-01T00:30:25Z</time>
      </trkpt>
      <trkpt lat="48.80805000" lon="8.357020000">
        <ele>252.00000</ele>
        <time>2010-01-01T00:30:59Z</time>
      </trkpt>
      <trkpt lat="48.80802000" lon="8.356960000">
        <ele>252.00000</ele>
        <time>2010-01-01T00:31:01Z</time>
      </trkpt>
      <trkpt lat="48.80802000" lon="8.356950000">
        <ele>252.00000</ele>
        <time>2010-01-01T00:31:01Z</time>
      </trkpt>
      <trkpt lat="48.80698000" lon="8.354430000">
        <ele>242.00000</ele>
        <time>2010-01-01T00:32:19Z</time>
      </trkpt>
      <trkpt lat="48.80636000" lon="8.353140000">
        <ele>242.00000</ele>
        <time>2010-01-01T00:33:01Z</time>
      </trkpt>
      <trkpt lat="48.80636000" lon="8.353130000">
        <ele>242.00000</ele>
        <time>2010-01-01T00:33:02Z</time>
      </trkpt>
      <trkpt lat="48.80628000" lon="8.352980000">
        <ele>242.00000</ele>
        <time>2010-01-01T00:33:07Z</time>
      </trkpt>
      <trkpt lat="48.80644000" lon="8.354620000">
        <ele>235.00000</ele>
        <time>2010-01-01T00:33:50Z</time>
      </trkpt>
      <trkpt lat="48.80648000" lon="8.355840000">
        <ele>224.00000</ele>
        <time>2010-01-01T00:34:23Z</time>
      </trkpt>
      <trkpt lat="48.80643000" lon="8.356840000">
        <ele>217.00000</ele>
        <time>2010-01-01T00:34:49Z</time>
      </trkpt>
      <trkpt lat="48.80637000" lon="8.357090000">
        <ele>215.00000</ele>
        <time>2010-01-01T00:34:56Z</time>
      </trkpt>
      <trkpt lat="48.80661000" lon="8.358030000">
        <ele>212.00000</ele>
        <time>2010-01-01T00:35:23Z</time>
      </trkpt>
      <trkpt lat="48.80663000" lon="8.358500000">
        <ele>209.00000</ele>
        <time>2010-01-01T00:35:35Z</time>
      </trkpt>
      <trkpt lat="48.80658000" lon="8.358660000">
        <ele>209.00000</ele>
        <time>2010-01-01T00:35:40Z</time>
      </trkpt>
      <trkpt lat="48.80655000" lon="8.358730000">
        <ele>209.00000</ele>
        <time>2010-01-01T00:35:42Z</time>
      </trkpt>
      <trkpt lat="48.80594000" lon="8.359760000">
        <ele>218.00000</ele>
        <time>2010-01-01T00:36:18Z</time>
      </trkpt>
      <trkpt lat="48.80593000" lon="8.359770000">
        <ele>218.00000</ele>
        <time>2010-01-01T00:36:19Z</time>
      </trkpt>
      <trkpt lat="48.80648000" lon="8.360570000">
        <ele>224.00000</ele>
        <time>2010-01-01T00:36:49Z</time>
      </trkpt>
      <trkpt lat="48.80696000" lon="8.361320000">
        <ele>226.00000</ele>
        <time>2010-01-01T00:37:17Z</time>
      </trkpt>
      <trkpt lat="48.80711000" lon="8.361670000">
        <ele>225.00000</ele>
        <time>2010-01-01T00:37:28Z</time>
      </trkpt>
      <trkpt lat="48.80711000" lon="8.361660000">
        <ele>225.00000</ele>
        <time>2010-01-01T00:37:28Z</time>
      </trkpt>
      <trkpt lat="48.80713000" lon="8.361720000">
        <ele>225.00000</ele>
        <time>2010-01-01T00:37:30Z</time>
      </trkpt>
      <trkpt lat="48.80628000" lon="8.362580000">
        <ele>240.00000</ele>
        <time>2010-01-01T00:38:11Z</time>
      </trkpt>
      <trkpt lat="48.80627000" lon="8.362560000">
        <ele>240.00000</ele>
        <time>2010-01-01T00:38:12Z</time>
      </trkpt>
      <trkpt lat="48.80622000" lon="8.362540000">
        <ele>241.00000</ele>
        <time>2010-01-01T00:38:14Z</time>
      </trkpt>
      <trkpt lat="48.80620000" lon="8.362570000">
        <ele>241.00000</ele>
        <time>2010-01-01T00:38:15Z</time>
      </trkpt>
      <trkpt lat="48.80620000" lon="8.362550000">
        <ele>241.00000</ele>
        <time>2010-01-01T00:38:15Z</time>
      </trkpt>
      <trkpt lat="48.80568000" lon="8.361590000">
        <ele>239.00000</ele>
        <time>2010-01-01T00:38:48Z</time>
      </trkpt>
      <trkpt lat="48.80576000" lon="8.361470000">
        <ele>237.00000</ele>
        <time>2010-01-01T00:38:53Z</time>
      </trkpt>
      <trkpt lat="48.80575000" lon="8.361300000">
        <ele>236.00000</ele>
        <time>2010-01-01T00:38:57Z</time>
      </trkpt>
      <trkpt lat="48.80547000" lon="8.360720000">
        <ele>235.00000</ele>
        <time>2010-01-01T00:39:16Z</time>
      </trkpt>
      <trkpt lat="48.80505000" lon="8.360060000">
        <ele>233.00000</ele>
        <time>2010-01-01T00:39:40Z</time>
      </trkpt>
      <trkpt lat="48.80503000" lon="8.359850000">
        <ele>230.00000</ele>
        <time>2010-01-01T00:39:46Z</time>
      </trkpt>
      <trkpt lat="48.80496000" lon="8.359620000">
        <ele>227.00000</ele>
        <time>2010-01-01T00:39:53Z</time>
      </trkpt>
      <trkpt lat="48.80452000" lon="8.359060000">
        <ele>220.00000</ele>
        <time>2010-01-01T00:40:16Z</time>
      </trkpt>
      <trkpt lat="48.80446000" lon="8.358910000">
        <ele>219.00000</ele>
        <time>2010-01-01T00:40:20Z</time>
      </trkpt>
      <trkpt lat="48.80431000" lon="8.358940000">
        <ele>218.00000</ele>
        <time>2010-01-01T00:40:26Z</time>
      </trkpt>
      <trkpt lat="48.80431000" lon="8.358930000">
        <ele>218.00000</ele>
        <time>2010-01-01T00:40:26Z</time>
      </trkpt>
      <trkpt lat="48.80409000" lon="8.358860000">
        <ele>216.00000</ele>
        <time>2010-01-01T00:40:35Z</time>
      </trkpt>
      <trkpt lat="48.80383000" lon="8.358700000">
        <ele>215.00000</ele>
        <time>2010-01-01T00:40:47Z</time>
      </trkpt>
      <trkpt lat="48.80382000" lon="8.358660000">
        <ele>215.00000</ele>
        <time>2010-01-01T00:40:48Z</time>
      </trkpt>
      <trkpt lat="48.80379000" lon="8.358450000">
        <ele>214.00000</ele>
        <time>2010-01-01T00:40:53Z</time>
      </trkpt>
      <trkpt lat="48.80379000" lon="8.358260000">
        <ele>214.00000</ele>
        <time>2010-01-01T00:40:59Z</time>
      </trkpt>
      <trkpt lat="48.80376000" lon="8.358170000">
        <ele>214.00000</ele>
        <time>2010-01-01T00:41:01Z</time>
      </trkpt>
      <trkpt lat="48.80383000" lon="8.357870000">
        <ele>213.00000</ele>
        <time>2010-01-01T00:41:10Z</time>
      </trkpt>
      <trkpt lat="48.80352000" lon="8.357740000">
        <ele>216.00000</ele>
        <time>2010-01-01T00:41:22Z</time>
      </trkpt>
      <trkpt lat="48.80279000" lon="8.358310000">
        <ele>226.00000</ele>
        <time>2010-01-01T00:41:55Z</time>
      </trkpt>
      <trkpt lat="48.80271000" lon="8.358320000">
        <ele>227.00000</ele>
        <time>2010-01-01T00:41:59Z</time>
      </trkpt>
      <trkpt lat="48.80253000" lon="8.358460000">
        <ele>230.00000</ele>
        <time>2010-01-01T00:42:07Z</time>
      </trkpt>
      <trkpt lat="48.80233000" lon="8.358780000">
        <ele>233.00000</ele>
        <time>2010-01-01T00:42:18Z</time>
      </trkpt>
      <trkpt lat="48.80224000" lon="8.359210000">
        <ele>236.00000</ele>
        <time>2010-01-01T00:42:30Z</time>
      </trkpt>
      <trkpt lat="48.80208000" lon="8.359140000">
        <ele>238.00000</ele>
        <time>2010-01-01T00:42:37Z</time>
      </trkpt>
      <trkpt lat="48.80205000" lon="8.359140000">
        <ele>239.00000</ele>
        <time>2010-01-01T00:42:38Z</time>
      </trkpt>
      <trkpt lat="48.80189000" lon="8.359160000">
        <ele>242.00000</ele>
        <time>2010-01-01T00:42:44Z</time>
      </trkpt>
      <trkpt lat="48.80177000" lon="8.359270000">
        <ele>245.00000</ele>
        <time>2010-01-01T00:42:50Z</time>
      </trkpt>
      <trkpt lat="48.80161000" lon="8.359340000">
        <ele>247.00000</ele>
        <time>2010-01-01T00:42:57Z</time>
      </trkpt>
      <trkpt lat="48.80142000" lon="8.359300000">
        <ele>247.00000</ele>
        <time>2010-01-01T00:43:04Z</time>
      </trkpt>
      <trkpt lat="48.80126000" lon="8.359130000">
        <ele>247.00000</ele>
        <time>2010-01-01T00:43:12Z</time>
      </trkpt>
      <trkpt lat="48.80096000" lon="8.359170000">
        <ele>251.00000</ele>
        <time>2010-01-01T00:43:24Z</time>
      </trkpt>
      <trkpt lat="48.80079000" lon="8.359310000">
        <ele>255.00000</ele>
        <time>2010-01-01T00:43:32Z</time>
      </trkpt>
      <trkpt lat="48.80063000" lon="8.359480000">
        <ele>258.00000</ele>
        <time>2010-01-01T00:43:40Z</time>
      </trkpt>
      <trkpt lat="48.80049000" lon="8.359780000">
        <ele>261.00000</ele>
        <time>2010-01-01T00:43:50Z</time>
      </trkpt>
      <trkpt lat="48.80035000" lon="8.360130000">
        <ele>262.00000</ele>
        <time>2010-01-01T00:44:00Z</time>
      </trkpt>
      <trkpt lat="48.80026000" lon="8.360490000">
        <ele>263.00000</ele>
        <time>2010-01-01T00:44:10Z</time>
      </trkpt>
      <trkpt lat="48.80001000" lon="8.361000000">
        <ele>267.00000</ele>
        <time>2010-01-01T00:44:27Z</time>
      </trkpt>
      <trkpt lat="48.79990000" lon="8.361120000">
        <ele>268.00000</ele>
        <time>2010-01-01T00:44:33Z</time>
      </trkpt>
      <trkpt lat="48.79973000" lon="8.361240000">
        <ele>269.00000</ele>
        <time>2010-01-01T00:44:40Z</time>
      </trkpt>
      <trkpt lat="48.79955000" lon="8.361240000">
        <ele>271.00000</ele>
        <time>2010-01-01T00:44:47Z</time>
      </trkpt>
      <trkpt lat="48.79937000" lon="8.361030000">
        <ele>272.00000</ele>
        <time>2010-01-01T00:44:56Z</time>
      </trkpt>
      <trkpt lat="48.79904000" lon="8.360230000">
        <ele>280.00000</ele>
        <time>2010-01-01T00:45:21Z</time>
      </trkpt>
      <trkpt lat="48.79878000" lon="8.360650000">
        <ele>284.00000</ele>
        <time>2010-01-01T00:45:37Z</time>
      </trkpt>
      <trkpt lat="48.79834000" lon="8.361120000">
        <ele>287.00000</ele>
        <time>2010-01-01T00:45:58Z</time>
      </trkpt>
      <trkpt lat="48.79792000" lon="8.361610000">
        <ele>290.00000</ele>
        <time>2010-01-01T00:46:19Z</time>
      </trkpt>
      <trkpt lat="48.79747000" lon="8.362010000">
        <ele>296.00000</ele>
        <time>2010-01-01T00:46:40Z</time>
      </trkpt>
      <trkpt lat="48.79699000" lon="8.362090000">
        <ele>300.00000</ele>
        <time>2010-01-01T00:46:59Z</time>
      </trkpt>
      <trkpt lat="48.79659000" lon="8.362340000">
        <ele>304.00000</ele>
        <time>2010-01-01T00:47:17Z</time>
      </trkpt>
      <trkpt lat="48.79624000" lon="8.362610000">
        <ele>301.00000</ele>
        <time>2010-01-01T00:47:32Z</time>
      </trkpt>
      <trkpt lat="48.79601000" lon="8.362920000">
        <ele>299.00000</ele>
        <time>2010-01-01T00:47:45Z</time>
      </trkpt>
      <trkpt lat="48.79556000" lon="8.363740000">
        <ele>313.00000</ele>
        <time>2010-01-01T00:48:13Z</time>
      </trkpt>
      <trkpt lat="48.79522000" lon="8.364320000">
        <ele>326.00000</ele>
        <time>2010-01-01T00:48:33Z</time>
      </trkpt>
      <trkpt lat="48.79506000" lon="8.364720000">
        <ele>331.00000</ele>
        <time>2010-01-01T00:48:46Z</time>
      </trkpt>
      <trkpt lat="48.79491000" lon="8.364970000">
        <ele>334.00000</ele>
        <time>2010-01-01T00:48:55Z</time>
      </trkpt>
      <trkpt lat="48.79482000" lon="8.365120000">
        <ele>336.00000</ele>
        <time>2010-01-01T00:49:00Z</time>
      </trkpt>
      <trkpt lat="48.79468000" lon="8.365090000">
        <ele>338.00000</ele>
        <time>2010-01-01T00:49:06Z</time>
      </trkpt>
      <trkpt lat="48.79396000" lon="8.364200000">
        <ele>338.00000</ele>
        <time>2010-01-01T00:49:43Z</time>
      </trkpt>
      <trkpt lat="48.79354000" lon="8.363230000">
        <ele>318.00000</ele>
        <time>2010-01-01T00:50:13Z</time>
      </trkpt>
      <trkpt lat="48.79293000" lon="8.363190000">
        <ele>329.00000</ele>
        <time>2010-01-01T00:50:38Z</time>
      </trkpt>
      <trkpt lat="48.79262000" lon="8.362880000">
        <ele>329.00000</ele>
        <time>2010-01-01T00:50:53Z</time>
      </trkpt>
      <trkpt lat="48.79226000" lon="8.362430000">
        <ele>336.00000</ele>
        <time>2010-01-01T00:51:11Z</time>
      </trkpt>
      <trkpt lat="48.79228000" lon="8.362180000">
        <ele>329.00000</ele>
        <time>2010-01-01T00:51:18Z</time>
      </trkpt>
      <trkpt lat="48.79224000" lon="8.361870000">
        <ele>326.00000</ele>
        <time>2010-01-01T00:51:26Z</time>
      </trkpt>
      <trkpt lat="48.79196000" lon="8.361310000">
        <ele>327.00000</ele>
        <time>2010-01-01T00:51:45Z</time>
      </trkpt>
      <trkpt lat="48.79165000" lon="8.361200000">
        <ele>331.00000</ele>
        <time>2010-01-01T00:51:58Z</time>
      </trkpt>
      <trkpt lat="48.79141000" lon="8.361140000">
        <ele>330.00000</ele>
        <time>2010-01-01T00:52:07Z</time>
      </trkpt>
      <trkpt lat="48.79112000" lon="8.361390000">
        <ele>333.00000</ele>
        <time>2010-01-01T00:52:21Z</time>
      </trkpt>
      <trkpt lat="48.79094000" lon="8.361660000">
        <ele>334.00000</ele>
        <time>2010-01-01T00:52:31Z</time>
      </trkpt>
      <trkpt lat="48.79093000" lon="8.361730000">
        <ele>334.00000</ele>
        <time>2010-01-01T00:52:33Z</time>
      </trkpt>
      <trkpt lat="48.79086000" lon="8.362040000">
        <ele>333.00000</ele>
        <time>2010-01-01T00:52:41Z</time>
      </trkpt>
      <trkpt lat="48.79046000" lon="8.361530000">
        <ele>331.00000</ele>
        <time>2010-01-01T00:53:02Z</time>
      </trkpt>
      <trkpt lat="48.79025000" lon="8.361380000">
        <ele>331.00000</ele>
        <time>2010-01-01T00:53:12Z</time>
      </trkpt>
      <trkpt lat="48.78993000" lon="8.361090000">
        <ele>331.00000</ele>
        <time>2010-01-01T00:53:27Z</time>
      </trkpt>
      <trkpt lat="48.78968000" lon="8.360740000">
        <ele>329.00000</ele>
        <time>2010-01-01T00:53:40Z</time>
      </trkpt>
      <trkpt lat="48.78942000" lon="8.360080000">
        <ele>324.00000</ele>
        <time>2010-01-01T00:54:00Z</time>
      </trkpt>
      <trkpt lat="48.78917000" lon="8.359300000">
        <ele>316.00000</ele>
        <time>2010-01-01T00:54:23Z</time>
      </trkpt>
      <trkpt lat="48.78915000" lon="8.358950000">
        <ele>315.00000</ele>
        <time>2010-01-01T00:54:33Z</time>
      </trkpt>
      <trkpt lat="48.78905000" lon="8.358390000">
        <ele>309.00000</ele>
        <time>2010-01-01T00:54:48Z</time>
      </trkpt>
      <trkpt lat="48.78884000" lon="8.357920000">
        <ele>302.00000</ele>
        <time>2010-01-01T00:55:03Z</time>
      </trkpt>
      <trkpt lat="48.78836000" lon="8.357180000">
        <ele>294.00000</ele>
        <time>2010-01-01T00:55:30Z</time>
      </trkpt>
      <trkpt lat="48.78772000" lon="8.356730000">
        <ele>281.00000</ele>
        <time>2010-01-01T00:55:59Z</time>
      </trkpt>
      <trkpt lat="48.78748000" lon="8.356710000">
        <ele>274.00000</ele>
        <time>2010-01-01T00:56:08Z</time>
      </trkpt>
      <trkpt lat="48.78700000" lon="8.356460000">
        <ele>266.00000</ele>
        <time>2010-01-01T00:56:28Z</time>
      </trkpt>
      <trkpt lat="48.78681000" lon="8.356150000">
        <ele>263.00000</ele>
        <time>2010-01-01T00:56:40Z</time>
      </trkpt>
      <trkpt lat="48.78694000" lon="8.355690000">
        <ele>261.00000</ele>
        <time>2010-01-01T00:56:53Z</time>
      </trkpt>
      <trkpt lat="48.78695000" lon="8.355350000">
        <ele>261.00000</ele>
        <time>2010-01-01T00:57:02Z</time>
      </trkpt>
      <trkpt lat="48.78687000" lon="8.355060000">
        <ele>261.00000</ele>
        <time>2010-01-01T00:57:10Z</time>
      </trkpt>
      <trkpt lat="48.78672000" lon="8.354920000">
        <ele>260.00000</ele>
        <time>2010-01-01T00:57:17Z</time>
      </trkpt>
      <trkpt lat="48.78627000" lon="8.354670000">
        <ele>251.00000</ele>
        <time>2010-01-01T00:57:36Z</time>
      </trkpt>
      <trkpt lat="48.78569000" lon="8.354470000">
        <ele>239.00000</ele>
        <time>2010-01-01T00:58:00Z</time>
      </trkpt>
      <trkpt lat="48.78533000" lon="8.354850000">
        <ele>236.00000</ele>
        <time>2010-01-01T00:58:18Z</time>
      </trkpt>
      <trkpt lat="48.78429000" lon="8.355420000">
        <ele>217.00000</ele>
        <time>2010-01-01T00:59:02Z</time>
      </trkpt>
      <trkpt lat="48.78426000" lon="8.355470000">
        <ele>216.00000</ele>
        <time>2010-01-01T00:59:04Z</time>
      </trkpt>
      <trkpt lat="48.78305950" lon="8.354158400">
        <ele>186.00000</ele>
        <time>2010-01-01T01:00:03Z</time>
      </trkpt>
      <trkpt lat="48.78303120" lon="8.352806560">
        <ele>181.00000</ele>
        <time>2010-01-01T01:00:39Z</time>
      </trkpt>
      <trkpt lat="48.78339880" lon="8.351540560">
        <ele>178.00000</ele>
        <time>2010-01-01T01:01:15Z</time>
      </trkpt>
      <trkpt lat="48.78340000" lon="8.351510000">
        <ele>178.00000</ele>
        <time>2010-01-01T01:01:16Z</time>
      </trkpt>
      <trkpt lat="48.78343000" lon="8.351510000">
        <ele>178.00000</ele>
        <time>2010-01-01T01:01:17Z</time>
      </trkpt>
      <trkpt lat="48.78389000" lon="8.349770000">
        <ele>170.00000</ele>
        <time>2010-01-01T01:02:07Z</time>
      </trkpt>
      <trkpt lat="48.78372000" lon="8.349430000">
        <ele>171.00000</ele>
        <time>2010-01-01T01:02:18Z</time>
      </trkpt>
      <trkpt lat="48.78360000" lon="8.348910000">
        <ele>169.00000</ele>
        <time>2010-01-01T01:02:32Z</time>
      </trkpt>
      <trkpt lat="48.78359000" lon="8.348510000">
        <ele>167.00000</ele>
        <time>2010-01-01T01:02:43Z</time>
      </trkpt>
      <trkpt lat="48.78366000" lon="8.347920000">
        <ele>163.00000</ele>
        <time>2010-01-01T01:02:59Z</time>
      </trkpt>
      <trkpt lat="48.78362000" lon="8.347700000">
        <ele>161.00000</ele>
        <time>2010-01-01T01:03:05Z</time>
      </trkpt>
      <trkpt lat="48.78353000" lon="8.347540000">
        <ele>159.00000</ele>
        <time>2010-01-01T01:03:10Z</time>
      </trkpt>
      <trkpt lat="48.78329000" lon="8.347420000">
        <ele>160.00000</ele>
        <time>2010-01-01T01:03:20Z</time>
      </trkpt>
      <trkpt lat="48.78329000" lon="8.347410000">
        <ele>159.00000</ele>
        <time>2010-01-01T01:03:21Z</time>
      </trkpt>
      <trkpt lat="48.78324000" lon="8.347390000">
        <ele>160.00000</ele>
        <time>2010-01-01T01:03:23Z</time>
      </trkpt>
      <trkpt lat="48.78331000" lon="8.347180000">
        <ele>159.00000</ele>
        <time>2010-01-01T01:03:29Z</time>
      </trkpt>
      <trkpt lat="48.78346000" lon="8.347010000">
        <ele>158.00000</ele>
        <time>2010-01-01T01:03:36Z</time>
      </trkpt>
      <trkpt lat="48.78363000" lon="8.346250000">
        <ele>157.00000</ele>
        <time>2010-01-01T01:03:58Z</time>
      </trkpt>
      <trkpt lat="48.78384000" lon="8.345570000">
        <ele>156.00000</ele>
        <time>2010-01-01T01:04:17Z</time>
      </trkpt>
      <trkpt lat="48.78385000" lon="8.345550000">
        <ele>157.00000</ele>
        <time>2010-01-01T01:04:18Z</time>
      </trkpt>
      <trkpt lat="48.78378000" lon="8.345530000">
        <ele>157.00000</ele>
        <time>2010-01-01T01:04:21Z</time>
      </trkpt>
      <trkpt lat="48.78341000" lon="8.345270000">
        <ele>156.00000</ele>
        <time>2010-01-01T01:04:37Z</time>
      </trkpt>
      <trkpt lat="48.78310000" lon="8.344660000">
        <ele>155.00000</ele>
        <time>2010-01-01T01:04:58Z</time>
      </trkpt>
      <trkpt lat="48.78285000" lon="8.344000000">
        <ele>154.00000</ele>
        <time>2010-01-01T01:05:18Z</time>
      </trkpt>
      <trkpt lat="48.78286000" lon="8.343700000">
        <ele>153.00000</ele>
        <time>2010-01-01T01:05:26Z</time>
      </trkpt>
      <trkpt lat="48.78287000" lon="8.343700000">
        <ele>153.00000</ele>
        <time>2010-01-01T01:05:26Z</time>
      </trkpt>
      <trkpt lat="48.78301700" lon="8.342581980">
        <ele>154.00000</ele>
        <time>2010-01-01T01:05:56Z</time>
      </trkpt>
      <trkpt lat="48.78325030" lon="8.342775100">
        <ele>155.00000</ele>
        <time>2010-01-01T01:06:07Z</time>
      </trkpt>
      <trkpt lat="48.78343410" lon="8.342292300">
        <ele>154.00000</ele>
        <time>2010-01-01T01:06:21Z</time>
      </trkpt>
      <trkpt lat="48.78352600" lon="8.341766590">
        <ele>152.00000</ele>
        <time>2010-01-01T01:06:36Z</time>
      </trkpt>
      <trkpt lat="48.78378050" lon="8.341423270">
        <ele>153.00000</ele>
        <time>2010-01-01T01:06:49Z</time>
      </trkpt>
      <trkpt lat="48.78559020" lon="8.338944910">
        <ele>152.00000</ele>
        <time>2010-01-01T01:08:27Z</time>
      </trkpt>
      <trkpt lat="48.78479140" lon="8.338676690">
        <ele>157.00000</ele>
        <time>2010-01-01T01:09:00Z</time>
      </trkpt>
      <trkpt lat="48.78438850" lon="8.338161700">
        <ele>157.00000</ele>
        <time>2010-01-01T01:09:21Z</time>
      </trkpt>
      <trkpt lat="48.78431780" lon="8.338826890">
        <ele>155.00000</ele>
        <time>2010-01-01T01:09:39Z</time>
      </trkpt>
      <trkpt lat="48.78393610" lon="8.338998550">
        <ele>158.00000</ele>
        <time>2010-01-01T01:09:54Z</time>
      </trkpt>
      <trkpt lat="48.78322210" lon="8.338268990">
        <ele>176.00000</ele>
        <time>2010-01-01T01:10:29Z</time>
      </trkpt>
      <trkpt lat="48.78223940" lon="8.336884970">
        <ele>193.00000</ele>
        <time>2010-01-01T01:11:23Z</time>
      </trkpt>
      <trkpt lat="48.78153950" lon="8.335844270">
        <ele>191.00000</ele>
        <time>2010-01-01T01:12:02Z</time>
      </trkpt>
      <trkpt lat="48.78057100" lon="8.334546080">
        <ele>194.00000</ele>
        <time>2010-01-01T01:12:54Z</time>
      </trkpt>
      <trkpt lat="48.77947520" lon="8.333548300">
        <ele>208.00000</ele>
        <time>2010-01-01T01:13:45Z</time>
      </trkpt>
      <trkpt lat="48.77869040" lon="8.333269350">
        <ele>212.00000</ele>
        <time>2010-01-01T01:14:17Z</time>
      </trkpt>
      <trkpt lat="48.77827330" lon="8.332625620">
        <ele>216.00000</ele>
        <time>2010-01-01T01:14:41Z</time>
      </trkpt>
      <trkpt lat="48.77849950" lon="8.331971160">
        <ele>223.00000</ele>
        <time>2010-01-01T01:15:00Z</time>
      </trkpt>
      <trkpt lat="48.77849950" lon="8.331552740">
        <ele>223.00000</ele>
        <time>2010-01-01T01:15:11Z</time>
      </trkpt>
      <trkpt lat="48.77840050" lon="8.331155770">
        <ele>223.00000</ele>
        <time>2010-01-01T01:15:23Z</time>
      </trkpt>
      <trkpt lat="48.77800460" lon="8.330565690">
        <ele>220.00000</ele>
        <time>2010-01-01T01:15:45Z</time>
      </trkpt>
      <trkpt lat="48.77784910" lon="8.330340380">
        <ele>221.00000</ele>
        <time>2010-01-01T01:15:53Z</time>
      </trkpt>
      <trkpt lat="48.77802580" lon="8.329728840">
        <ele>209.00000</ele>
        <time>2010-01-01T01:16:11Z</time>
      </trkpt>
      <trkpt lat="48.77787030" lon="8.328934900">
        <ele>205.00000</ele>
        <time>2010-01-01T01:16:33Z</time>
      </trkpt>
      <trkpt lat="48.77741780" lon="8.328291170">
        <ele>211.00000</ele>
        <time>2010-01-01T01:16:58Z</time>
      </trkpt>
      <trkpt lat="48.77715620" lon="8.327701090">
        <ele>212.00000</ele>
        <time>2010-01-01T01:17:16Z</time>
      </trkpt>
      <trkpt lat="48.77714910" lon="8.327261200">
        <ele>212.00000</ele>
        <time>2010-01-01T01:17:28Z</time>
      </trkpt>
      <trkpt lat="48.77661180" lon="8.326724760">
        <ele>223.00000</ele>
        <time>2010-01-01T01:17:54Z</time>
      </trkpt>
      <trkpt lat="48.77613810" lon="8.326091760">
        <ele>230.00000</ele>
        <time>2010-01-01T01:18:19Z</time>
      </trkpt>
      <trkpt lat="48.77631480" lon="8.324868670">
        <ele>230.00000</ele>
        <time>2010-01-01T01:18:52Z</time>
      </trkpt>
      <trkpt lat="48.77550880" lon="8.323194980">
        <ele>242.00000</ele>
        <time>2010-01-01T01:19:47Z</time>
      </trkpt>
      <trkpt lat="48.77425030" lon="8.322465410">
        <ele>251.00000</ele>
        <time>2010-01-01T01:20:41Z</time>
      </trkpt>
      <trkpt lat="48.77268060" lon="8.322143550">
        <ele>265.00000</ele>
        <time>2010-01-01T01:21:44Z</time>
      </trkpt>
      <trkpt lat="48.77200180" lon="8.321671480">
        <ele>262.00000</ele>
        <time>2010-01-01T01:22:14Z</time>
      </trkpt>
      <trkpt lat="48.77135120" lon="8.320791720">
        <ele>278.00000</ele>
        <time>2010-01-01T01:22:49Z</time>
      </trkpt>
      <trkpt lat="48.77091280" lon="8.321607110">
        <ele>275.00000</ele>
        <time>2010-01-01T01:23:17Z</time>
      </trkpt>
      <trkpt lat="48.77014920" lon="8.322916030">
        <ele>260.00000</ele>
        <time>2010-01-01T01:24:03Z</time>
      </trkpt>
      <trkpt lat="48.76889050" lon="8.323431010">
        <ele>241.00000</ele>
        <time>2010-01-01T01:24:55Z</time>
      </trkpt>
      <trkpt lat="48.76805600" lon="8.324804300">
        <ele>219.00000</ele>
        <time>2010-01-01T01:25:44Z</time>
      </trkpt>
      <trkpt lat="48.76758930" lon="8.325555320">
        <ele>212.00000</ele>
        <time>2010-01-01T01:26:11Z</time>
      </trkpt>
      <trkpt lat="48.76739130" lon="8.326756950">
        <ele>208.00000</ele>
        <time>2010-01-01T01:26:44Z</time>
      </trkpt>
      <trkpt lat="48.76635890" lon="8.327400680">
        <ele>199.00000</ele>
        <time>2010-01-01T01:27:29Z</time>
      </trkpt>
      <trkpt lat="48.76548200" lon="8.328237530">
        <ele>187.00000</ele>
        <time>2010-01-01T01:28:10Z</time>
      </trkpt>
      <trkpt lat="48.76494450" lon="8.329310410">
        <ele>177.00000</ele>
        <time>2010-01-01T01:28:46Z</time>
      </trkpt>
      <trkpt lat="48.76464040" lon="8.328430650">
        <ele>182.00000</ele>
        <time>2010-01-01T01:29:12Z</time>
      </trkpt>
      <trkpt lat="48.76430100" lon="8.328688140">
        <ele>186.00000</ele>
        <time>2010-01-01T01:29:27Z</time>
      </trkpt>
      <trkpt lat="48.76419490" lon="8.329288950">
        <ele>186.00000</ele>
        <time>2010-01-01T01:29:44Z</time>
      </trkpt>
      <trkpt lat="48.76413830" lon="8.330522770">
        <ele>190.00000</ele>
        <time>2010-01-01T01:30:16Z</time>
      </trkpt>
      <trkpt lat="48.76413830" lon="8.330672970">
        <ele>191.00000</ele>
        <time>2010-01-01T01:30:20Z</time>
      </trkpt>
      <trkpt lat="48.76362910" lon="8.330812450">
        <ele>200.00000</ele>
        <time>2010-01-01T01:30:41Z</time>
      </trkpt>
      <trkpt lat="48.76377050" lon="8.331778040">
        <ele>196.00000</ele>
        <time>2010-01-01T01:31:07Z</time>
      </trkpt>
      <trkpt lat="48.76377760" lon="8.332690000">
        <ele>189.00000</ele>
        <time>2010-01-01T01:31:31Z</time>
      </trkpt>
      <trkpt lat="48.76370690" lon="8.334556810">
        <ele>178.00000</ele>
        <time>2010-01-01T01:32:20Z</time>
      </trkpt>
      <trkpt lat="48.76327550" lon="8.335222000">
        <ele>176.00000</ele>
        <time>2010-01-01T01:32:45Z</time>
      </trkpt>
      <trkpt lat="48.76297140" lon="8.335801360">
        <ele>172.00000</ele>
        <time>2010-01-01T01:33:05Z</time>
      </trkpt>
      <trkpt lat="48.76224300" lon="8.336724040">
        <ele>171.00000</ele>
        <time>2010-01-01T01:33:43Z</time>
      </trkpt>
      <trkpt lat="48.76139430" lon="8.337346310">
        <ele>170.00000</ele>
        <time>2010-01-01T01:34:20Z</time>
      </trkpt>
      <trkpt lat="48.76120330" lon="8.337357040">
        <ele>174.00000</ele>
        <time>2010-01-01T01:34:28Z</time>
      </trkpt>
      <trkpt lat="48.76098410" lon="8.336842060">
        <ele>185.00000</ele>
        <time>2010-01-01T01:34:44Z</time>
      </trkpt>
      <trkpt lat="48.76070120" lon="8.336445090">
        <ele>192.00000</ele>
        <time>2010-01-01T01:35:00Z</time>
      </trkpt>
      <trkpt lat="48.76011420" lon="8.335747710">
        <ele>210.00000</ele>
        <time>2010-01-01T01:35:29Z</time>
      </trkpt>
      <trkpt lat="48.75960490" lon="8.335093250">
        <ele>223.00000</ele>
        <time>2010-01-01T01:35:56Z</time>
      </trkpt>
      <trkpt lat="48.75905330" lon="8.334556810">
        <ele>244.00000</ele>
        <time>2010-01-01T01:36:22Z</time>
      </trkpt>
      <trkpt lat="48.75916640" lon="8.335136170">
        <ele>238.00000</ele>
        <time>2010-01-01T01:36:38Z</time>
      </trkpt>
      <trkpt lat="48.75955540" lon="8.335715530">
        <ele>227.00000</ele>
        <time>2010-01-01T01:37:00Z</time>
      </trkpt>
      <trkpt lat="48.75981710" lon="8.336445090">
        <ele>222.00000</ele>
        <time>2010-01-01T01:37:22Z</time>
      </trkpt>
      <trkpt lat="48.76025560" lon="8.337196110">
        <ele>204.00000</ele>
        <time>2010-01-01T01:37:49Z</time>
      </trkpt>
      <trkpt lat="48.76047490" lon="8.337281940">
        <ele>197.00000</ele>
        <time>2010-01-01T01:37:58Z</time>
      </trkpt>
      <trkpt lat="48.76046780" lon="8.337550160">
        <ele>196.00000</ele>
        <time>2010-01-01T01:38:05Z</time>
      </trkpt>
      <trkpt lat="48.76038290" lon="8.337796920">
        <ele>196.00000</ele>
        <time>2010-01-01T01:38:12Z</time>
      </trkpt>
      <trkpt lat="48.76018490" lon="8.337990040">
        <ele>199.00000</ele>
        <time>2010-01-01T01:38:21Z</time>
      </trkpt>
      <trkpt lat="48.75974640" lon="8.338183160">
        <ele>201.00000</ele>
        <time>2010-01-01T01:38:40Z</time>
      </trkpt>
      <trkpt lat="48.75908860" lon="8.338623040">
        <ele>197.00000</ele>
        <time>2010-01-01T01:39:08Z</time>
      </trkpt>
      <trkpt lat="48.75986660" lon="8.338880530">
        <ele>173.00000</ele>
        <time>2010-01-01T01:39:40Z</time>
      </trkpt>
      <trkpt lat="48.76049610" lon="8.339964150">
        <ele>164.00000</ele>
        <time>2010-01-01T01:40:18Z</time>
      </trkpt>
      <trkpt lat="48.76061630" lon="8.340318200">
        <ele>168.00000</ele>
        <time>2010-01-01T01:40:29Z</time>
      </trkpt>
      <trkpt lat="48.76111850" lon="8.340039250">
        <ele>174.00000</ele>
        <time>2010-01-01T01:40:50Z</time>
      </trkpt>
      <trkpt lat="48.76198840" lon="8.339599370">
        <ele>168.00000</ele>
        <time>2010-01-01T01:41:27Z</time>
      </trkpt>
      <trkpt lat="48.76240560" lon="8.339180940">
        <ele>168.00000</ele>
        <time>2010-01-01T01:41:47Z</time>
      </trkpt>
      <trkpt lat="48.76321190" lon="8.338891260">
        <ele>167.00000</ele>
        <time>2010-01-01T01:42:20Z</time>
      </trkpt>
      <trkpt lat="48.76371400" lon="8.338655230">
        <ele>167.00000</ele>
        <time>2010-01-01T01:42:41Z</time>
      </trkpt>
    </trkseg>
  </trk>
</gpx>

